createdAt,value
2022-12-08T00:01:34.077Z,-3.63
2022-12-08T00:04:04.401Z,-3.64
2022-12-08T00:06:59.622Z,-3.66
2022-12-08T00:09:39.395Z,-3.68
2022-12-08T00:12:15.523Z,-3.69
2022-12-08T00:14:46.508Z,-3.70
2022-12-08T00:17:16.483Z,-3.72
2022-12-08T00:19:45.465Z,-3.73
2022-12-08T00:22:14.902Z,-3.75
2022-12-08T00:24:45.724Z,-3.76
2022-12-08T00:27:16.175Z,-3.78
2022-12-08T00:29:45.631Z,-3.79
2022-12-08T00:32:13.960Z,-3.81
2022-12-08T00:34:42.207Z,-3.83
2022-12-08T00:37:10.444Z,-3.84
2022-12-08T00:39:38.451Z,-3.84
2022-12-08T00:42:12.142Z,-3.81
2022-12-08T00:44:41.632Z,-3.76
2022-12-08T00:47:10.233Z,-3.70
2022-12-08T00:49:38.618Z,-3.64
2022-12-08T00:52:07.104Z,-3.59
2022-12-08T00:54:35.585Z,-3.55
2022-12-08T00:57:04.164Z,-3.52
2022-12-08T00:59:32.639Z,-3.52
2022-12-08T01:02:02.043Z,-3.53
2022-12-08T01:04:30.048Z,-3.55
2022-12-08T01:06:58.088Z,-3.58
2022-12-08T01:09:26.130Z,-3.60
2022-12-08T01:11:54.138Z,-3.61
2022-12-08T01:14:22.530Z,-3.62
2022-12-08T01:16:50.673Z,-3.62
2022-12-08T01:19:18.988Z,-3.61
2022-12-08T01:21:47.662Z,-3.60
2022-12-08T01:24:21.151Z,-3.59
2022-12-08T01:26:50.545Z,-3.58
2022-12-08T01:29:19.093Z,-3.57
2022-12-08T01:31:47.119Z,-3.57
2022-12-08T01:34:15.124Z,-3.57
2022-12-08T01:36:44.603Z,-3.55
2022-12-08T01:39:17.882Z,-3.54
2022-12-08T01:41:47.782Z,-3.53
2022-12-08T01:44:15.752Z,-3.53
2022-12-08T01:46:46.232Z,-3.53
2022-12-08T01:49:26.539Z,-3.53
2022-12-08T01:52:00.604Z,-3.55
2022-12-08T01:54:34.253Z,-3.57
2022-12-08T01:57:12.702Z,-3.57
2022-12-08T01:59:50.270Z,-3.56
2022-12-08T02:02:18.480Z,-3.54
2022-12-08T02:04:46.619Z,-3.52
2022-12-08T02:07:16.539Z,-3.50
2022-12-08T02:09:45.404Z,-3.48
2022-12-08T02:12:13.744Z,-3.47
2022-12-08T02:14:41.978Z,-3.47
2022-12-08T02:17:36.469Z,-3.50
2022-12-08T02:20:19.731Z,-3.52
2022-12-08T02:22:54.842Z,-3.50
2022-12-08T02:25:44.620Z,-3.50
2022-12-08T02:29:01.434Z,-3.49
2022-12-08T02:32:07.495Z,-3.49
2022-12-08T02:34:46.214Z,-3.47
2022-12-08T02:37:29.482Z,-3.47
2022-12-08T02:40:16.663Z,-3.49
2022-12-08T02:42:51.291Z,-3.55
2022-12-08T02:45:26.631Z,-3.60
2022-12-08T02:47:55.497Z,-3.64
2022-12-08T02:50:24.381Z,-3.69
2022-12-08T02:52:52.848Z,-3.72
2022-12-08T02:55:27.786Z,-3.76
2022-12-08T02:58:35.558Z,-3.80
2022-12-08T03:01:25.122Z,-3.83
2022-12-08T03:04:17.077Z,-3.88
2022-12-08T03:06:55.766Z,-3.93
2022-12-08T03:09:38.726Z,-3.98
2022-12-08T03:12:34.233Z,-4.01
2022-12-08T03:15:11.117Z,-4.05
2022-12-08T03:17:51.511Z,-4.08
2022-12-08T03:20:23.541Z,-4.08
2022-12-08T03:22:56.343Z,-4.07
2022-12-08T03:25:27.014Z,-4.05
2022-12-08T03:27:55.128Z,-4.04
2022-12-08T03:30:23.509Z,-4.03
2022-12-08T03:33:09.713Z,-4.04
2022-12-08T03:35:40.807Z,-4.04
2022-12-08T03:38:15.737Z,-4.05
2022-12-08T03:41:04.948Z,-4.06
2022-12-08T03:43:33.438Z,-4.07
2022-12-08T03:46:01.588Z,-4.10
2022-12-08T03:48:29.978Z,-4.12
2022-12-08T03:50:58.253Z,-4.13
2022-12-08T03:53:26.638Z,-4.17
2022-12-08T03:55:55.014Z,-4.19
2022-12-08T03:58:23.081Z,-4.21
2022-12-08T04:00:51.160Z,-4.23
2022-12-08T04:03:19.219Z,-4.24
2022-12-08T04:05:47.448Z,-4.25
2022-12-08T04:08:15.601Z,-4.25
2022-12-08T04:10:44.162Z,-4.25
2022-12-08T04:13:12.338Z,-4.24
2022-12-08T04:15:44.556Z,-4.24
2022-12-08T04:18:13.268Z,-4.25
2022-12-08T04:20:45.495Z,-4.26
2022-12-08T04:23:13.629Z,-4.29
2022-12-08T04:25:41.905Z,-4.29
2022-12-08T04:28:10.082Z,-4.30
2022-12-08T04:30:38.101Z,-4.30
2022-12-08T04:33:06.324Z,-4.30
2022-12-08T04:35:34.398Z,-4.30
2022-12-08T04:38:02.989Z,-4.30
2022-12-08T04:40:31.260Z,-4.29
2022-12-08T04:42:59.548Z,-4.29
2022-12-08T04:45:27.709Z,-4.29
2022-12-08T04:47:55.896Z,-4.29
2022-12-08T04:50:24.679Z,-4.31
2022-12-08T04:52:53.377Z,-4.30
2022-12-08T04:55:21.952Z,-4.29
2022-12-08T04:57:50.517Z,-4.29
2022-12-08T05:00:19.028Z,-4.29
2022-12-08T05:02:47.131Z,-4.28
2022-12-08T05:05:15.371Z,-4.28
2022-12-08T05:07:43.587Z,-4.27
2022-12-08T05:10:11.721Z,-4.26
2022-12-08T05:12:39.800Z,-4.24
2022-12-08T05:15:08.486Z,-4.23
2022-12-08T05:17:36.549Z,-4.20
2022-12-08T05:20:07.752Z,-4.19
2022-12-08T05:22:35.773Z,-4.16
2022-12-08T05:25:04.150Z,-4.14
2022-12-08T05:27:32.314Z,-4.12
2022-12-08T05:30:00.397Z,-4.09
2022-12-08T05:32:28.670Z,-4.07
2022-12-08T05:34:56.736Z,-4.05
2022-12-08T05:37:24.917Z,-4.02
2022-12-08T05:39:52.942Z,-4.00
2022-12-08T05:42:24.735Z,-3.99
2022-12-08T05:44:53.537Z,-3.96
2022-12-08T05:47:21.813Z,-3.93
2022-12-08T05:49:49.993Z,-3.90
2022-12-08T05:52:20.145Z,-3.87
2022-12-08T05:54:48.486Z,-3.85
2022-12-08T05:57:16.993Z,-3.85
2022-12-08T05:59:45.449Z,-3.84
2022-12-08T06:02:14.001Z,-3.82
2022-12-08T06:04:42.507Z,-3.83
2022-12-08T06:07:15.927Z,-3.84
2022-12-08T06:09:44.428Z,-3.84
2022-12-08T06:12:12.704Z,-3.83
2022-12-08T06:14:40.949Z,-3.83
2022-12-08T06:17:08.956Z,-3.82
2022-12-08T06:19:36.921Z,-3.80
2022-12-08T06:22:05.539Z,-3.79
2022-12-08T06:24:33.763Z,-3.76
2022-12-08T06:27:01.816Z,-3.71
2022-12-08T06:29:29.808Z,-3.66
2022-12-08T06:31:57.928Z,-3.60
2022-12-08T06:34:26.230Z,-3.53
2022-12-08T06:36:54.227Z,-3.46
2022-12-08T06:39:22.454Z,-3.39
2022-12-08T06:42:09.304Z,-3.30
2022-12-08T06:44:37.479Z,-3.22
2022-12-08T06:47:05.858Z,-3.14
2022-12-08T06:49:33.829Z,-3.07
2022-12-08T06:52:01.953Z,-3.00
2022-12-08T06:54:30.075Z,-2.92
2022-12-08T06:56:58.598Z,-2.84
2022-12-08T06:59:26.731Z,-2.76
2022-12-08T07:01:54.812Z,-2.69
2022-12-08T07:04:23.080Z,-2.59
2022-12-08T07:06:51.263Z,-2.47
2022-12-08T07:09:32.710Z,-2.31
2022-12-08T07:12:02.084Z,-2.11
2022-12-08T07:14:30.846Z,-1.86
2022-12-08T07:16:59.383Z,-1.58
2022-12-08T07:19:27.619Z,-1.30
2022-12-08T07:21:56.099Z,-1.13
2022-12-08T07:24:24.579Z,-1.01
2022-12-08T07:26:52.553Z,-0.90
2022-12-08T07:29:26.084Z,-0.81
2022-12-08T07:31:54.637Z,-0.75
2022-12-08T07:34:22.712Z,-0.74
2022-12-08T07:36:50.982Z,-0.73
2022-12-08T07:39:19.371Z,-0.72
2022-12-08T07:41:47.444Z,-0.69
2022-12-08T07:44:16.328Z,-0.65
2022-12-08T07:46:44.468Z,-0.59
2022-12-08T07:49:13.812Z,-0.54
2022-12-08T07:51:41.986Z,-0.48
2022-12-08T07:54:12.733Z,-0.42
2022-12-08T07:56:40.783Z,-0.35
2022-12-08T07:59:09.235Z,-0.26
2022-12-08T08:01:37.467Z,-0.16
2022-12-08T08:04:06.564Z,-0.04
2022-12-08T08:06:36.974Z,0.09
2022-12-08T08:09:05.036Z,0.21
2022-12-08T08:11:33.220Z,0.32
2022-12-08T08:14:01.144Z,0.37
2022-12-08T08:16:34.925Z,0.39
2022-12-08T08:19:06.258Z,0.43
2022-12-08T08:21:45.355Z,0.48
2022-12-08T08:24:14.254Z,0.53
2022-12-08T08:26:42.332Z,0.58
2022-12-08T08:29:10.469Z,0.65
2022-12-08T08:31:38.671Z,0.73
2022-12-08T08:34:06.965Z,0.83
2022-12-08T08:36:35.667Z,0.95
2022-12-08T08:39:04.437Z,1.07
2022-12-08T08:41:32.875Z,1.18
2022-12-08T08:44:01.295Z,1.30
2022-12-08T08:46:29.877Z,1.40
2022-12-08T08:48:58.369Z,1.52
2022-12-08T08:51:26.849Z,1.77
2022-12-08T08:53:55.069Z,2.25
2022-12-08T08:56:23.301Z,2.60
2022-12-08T08:58:53.320Z,3.07
2022-12-08T09:01:24.999Z,3.61
2022-12-08T09:03:54.317Z,3.75
2022-12-08T09:06:23.629Z,3.81
2022-12-08T09:08:52.326Z,3.97
2022-12-08T09:11:20.799Z,4.50
2022-12-08T09:13:50.185Z,5.50
2022-12-08T09:16:19.217Z,5.97
2022-12-08T09:18:49.665Z,6.18
2022-12-08T09:21:23.095Z,6.40
2022-12-08T09:23:54.034Z,6.86
2022-12-08T09:26:23.329Z,6.93
2022-12-08T09:28:52.118Z,6.65
2022-12-08T09:31:22.013Z,6.34
2022-12-08T09:33:54.230Z,5.98
2022-12-08T09:36:22.516Z,5.60
2022-12-08T09:38:51.882Z,5.29
2022-12-08T09:41:52.256Z,5.04
2022-12-08T09:44:48.314Z,4.75
2022-12-08T09:47:24.541Z,4.46
2022-12-08T09:50:05.526Z,4.15
2022-12-08T09:52:40.204Z,3.85
2022-12-08T09:55:24.532Z,3.62
2022-12-08T09:58:02.822Z,3.39
2022-12-08T10:00:31.398Z,3.23
2022-12-08T10:03:00.408Z,3.12
2022-12-08T10:05:33.351Z,3.01
2022-12-08T10:08:21.345Z,2.88
2022-12-08T10:11:00.298Z,2.75
2022-12-08T10:13:46.888Z,2.66
2022-12-08T10:16:39.494Z,2.61
2022-12-08T10:19:27.829Z,2.55
2022-12-08T10:22:01.947Z,2.48
2022-12-08T10:24:54.190Z,2.43
2022-12-08T10:27:42.116Z,2.40
2022-12-08T10:30:21.356Z,2.39
2022-12-08T10:32:54.259Z,2.39
2022-12-08T10:35:30.272Z,2.39
2022-12-08T10:38:09.150Z,2.41
2022-12-08T10:40:53.493Z,2.48
2022-12-08T10:43:31.299Z,2.56
2022-12-08T10:46:23.298Z,2.59
2022-12-08T10:49:17.925Z,2.59
2022-12-08T10:51:53.958Z,2.57
2022-12-08T10:54:33.498Z,2.53
2022-12-08T10:57:01.936Z,2.52
2022-12-08T10:59:34.421Z,2.52
2022-12-08T11:02:21.834Z,2.53
2022-12-08T11:05:01.407Z,2.58
2022-12-08T11:07:29.850Z,2.62
2022-12-08T11:09:59.234Z,2.65
2022-12-08T11:12:30.894Z,2.67
2022-12-08T11:15:03.597Z,2.68
2022-12-08T11:17:41.703Z,2.67
2022-12-08T11:20:09.934Z,2.67
2022-12-08T11:22:37.998Z,2.67
2022-12-08T11:25:12.211Z,2.68
2022-12-08T11:27:44.624Z,2.70
2022-12-08T11:30:24.538Z,2.72
2022-12-08T11:33:01.082Z,2.70
2022-12-08T11:35:35.464Z,2.70
2022-12-08T11:38:20.908Z,2.68
2022-12-08T11:41:14.211Z,2.67
2022-12-08T11:44:06.320Z,2.66
2022-12-08T11:46:47.739Z,2.65
2022-12-08T11:49:15.968Z,2.63
2022-12-08T11:51:57.044Z,2.66
2022-12-08T11:54:34.531Z,2.68
2022-12-08T11:57:05.946Z,2.73
2022-12-08T11:59:41.868Z,2.76
2022-12-08T12:02:17.572Z,2.78
2022-12-08T12:04:49.359Z,2.79
2022-12-08T12:07:42.969Z,2.80
2022-12-08T12:10:35.773Z,2.81
2022-12-08T12:13:08.008Z,2.82
2022-12-08T12:16:14.690Z,2.82
2022-12-08T12:18:48.036Z,2.80
2022-12-08T12:21:20.674Z,2.76
2022-12-08T12:24:26.017Z,2.74
2022-12-08T12:27:13.814Z,2.71
2022-12-08T12:29:50.926Z,2.67
2022-12-08T12:32:24.585Z,2.66
2022-12-08T12:34:59.031Z,2.65
2022-12-08T12:37:38.899Z,2.66
2022-12-08T12:40:17.921Z,2.66
2022-12-08T12:43:11.978Z,2.65
2022-12-08T12:45:44.030Z,2.63
2022-12-08T12:48:30.148Z,2.62
2022-12-08T12:50:58.364Z,2.61
2022-12-08T12:53:26.546Z,2.60
2022-12-08T12:55:59.720Z,2.59
2022-12-08T12:58:28.318Z,2.57
2022-12-08T13:01:13.044Z,2.55
2022-12-08T13:03:45.974Z,2.53
2022-12-08T13:06:21.849Z,2.52
2022-12-08T13:08:53.192Z,2.49
2022-12-08T13:11:22.942Z,2.46
2022-12-08T13:14:00.284Z,2.44
2022-12-08T13:16:33.058Z,2.42
2022-12-08T13:19:05.102Z,2.40
2022-12-08T13:21:36.329Z,2.35
2022-12-08T13:24:10.860Z,2.35
2022-12-08T13:26:46.912Z,2.34
2022-12-08T13:29:24.514Z,2.32
2022-12-08T13:31:56.571Z,2.31
2022-12-08T13:34:49.442Z,2.32
2022-12-08T13:37:26.003Z,2.33
2022-12-08T13:40:09.709Z,2.36
2022-12-08T13:43:19.823Z,2.37
2022-12-08T13:46:52.559Z,2.38
2022-12-08T13:53:41.703Z,2.36
2022-12-08T13:57:37.465Z,2.33
2022-12-08T14:00:15.040Z,2.32
2022-12-08T14:02:48.407Z,2.32
2022-12-08T14:05:21.734Z,2.32
2022-12-08T14:07:56.799Z,2.30
2022-12-08T14:10:32.335Z,2.29
2022-12-08T14:13:06.693Z,2.29
2022-12-08T14:15:38.333Z,2.26
2022-12-08T14:18:23.840Z,2.29
2022-12-08T14:21:20.817Z,2.27
2022-12-08T14:23:49.678Z,2.26
2022-12-08T14:26:18.152Z,2.26
2022-12-08T14:28:46.364Z,2.25
2022-12-08T14:31:14.841Z,2.24
2022-12-08T14:33:43.344Z,2.23
2022-12-08T14:36:15.870Z,2.21
2022-12-08T14:38:45.673Z,2.19
2022-12-08T14:41:14.677Z,2.19
2022-12-08T14:43:43.250Z,2.17
2022-12-08T14:46:22.958Z,2.14
2022-12-08T14:48:51.501Z,2.11
2022-12-08T14:51:19.492Z,2.07
2022-12-08T14:53:53.626Z,2.06
2022-12-08T14:56:21.753Z,2.04
2022-12-08T14:59:03.195Z,2.02
2022-12-08T15:01:32.598Z,2.01
2022-12-08T15:04:07.636Z,2.00
2022-12-08T15:06:36.310Z,1.99
2022-12-08T15:09:17.457Z,1.98
2022-12-08T15:11:45.508Z,1.98
2022-12-08T15:14:33.346Z,1.98
2022-12-08T15:17:01.628Z,1.98
2022-12-08T15:19:34.711Z,1.97
2022-12-08T15:22:18.042Z,1.97
2022-12-08T15:24:46.027Z,1.95
2022-12-08T15:27:23.205Z,1.93
2022-12-08T15:29:52.598Z,1.91
2022-12-08T18:37:00.947Z,2.38
2022-12-08T18:39:32.108Z,2.41
2022-12-08T18:42:02.713Z,2.43
2022-12-08T18:44:30.889Z,2.43
2022-12-08T18:46:59.532Z,2.45
2022-12-08T18:49:27.861Z,2.46
2022-12-08T18:51:55.902Z,2.47
2022-12-08T18:54:37.052Z,2.47
2022-12-08T18:57:13.435Z,2.47
2022-12-08T18:59:42.375Z,2.48
2022-12-08T19:02:12.519Z,2.48
2022-12-08T19:04:43.935Z,2.49
2022-12-08T19:07:13.430Z,2.49
2022-12-08T19:09:42.196Z,2.49
2022-12-08T19:12:13.054Z,2.46
2022-12-08T19:14:41.582Z,2.46
2022-12-08T19:17:09.882Z,2.44
2022-12-08T19:19:37.845Z,2.44
2022-12-08T19:22:06.063Z,2.42
2022-12-08T19:24:36.630Z,2.40
2022-12-08T19:27:05.897Z,2.39
2022-12-08T19:29:34.404Z,2.38
2022-12-08T19:32:05.279Z,2.36
2022-12-08T19:34:33.371Z,2.36
2022-12-08T19:37:01.269Z,2.35
2022-12-08T19:39:47.800Z,2.33
2022-12-08T19:42:37.466Z,2.33
2022-12-08T19:45:12.325Z,2.30
2022-12-08T19:47:41.092Z,2.28
2022-12-08T19:50:29.944Z,2.28
2022-12-08T19:52:58.645Z,2.28
2022-12-08T19:55:27.438Z,2.29
2022-12-08T19:57:57.065Z,2.29
2022-12-08T20:00:25.720Z,2.29
2022-12-08T20:02:53.879Z,2.29
2022-12-08T20:05:22.593Z,2.29
2022-12-08T20:07:50.818Z,2.30
2022-12-08T20:10:22.933Z,2.29
2022-12-08T20:12:51.203Z,2.28
2022-12-08T20:15:20.284Z,2.27
2022-12-08T20:17:48.397Z,2.26
2022-12-08T20:20:16.561Z,2.25
2022-12-08T20:22:45.702Z,2.24
2022-12-08T20:25:14.096Z,2.23
2022-12-08T20:27:42.733Z,2.22
2022-12-08T20:30:16.732Z,2.22
2022-12-08T20:32:46.133Z,2.22
2022-12-08T20:35:15.709Z,2.20
2022-12-08T20:37:43.978Z,2.19
2022-12-08T20:40:12.687Z,2.18
2022-12-08T20:42:40.898Z,2.15
2022-12-08T20:45:09.903Z,2.14
2022-12-08T20:47:38.325Z,2.14
2022-12-08T20:50:07.743Z,2.13
2022-12-08T20:52:37.966Z,2.13
2022-12-08T20:55:07.532Z,2.13
2022-12-08T20:57:35.828Z,2.12
2022-12-08T21:00:06.299Z,2.11
2022-12-08T21:02:35.428Z,2.11
2022-12-08T21:05:04.321Z,2.10
2022-12-08T21:07:33.765Z,2.10
2022-12-08T21:10:04.159Z,2.10
2022-12-08T21:12:32.818Z,2.11
2022-12-08T21:15:01.593Z,2.12
2022-12-08T21:17:29.909Z,2.13
2022-12-08T21:19:59.284Z,2.14
2022-12-08T21:22:28.664Z,2.14
2022-12-08T21:24:57.252Z,2.14
2022-12-08T21:27:25.761Z,2.14
2022-12-08T21:29:53.883Z,2.14
2022-12-08T21:32:27.091Z,2.13
2022-12-08T21:34:58.679Z,2.12
2022-12-08T21:37:27.101Z,2.11
2022-12-08T21:39:55.340Z,2.10
2022-12-08T21:42:41.882Z,2.10
2022-12-08T21:45:11.881Z,2.08
2022-12-08T21:47:40.879Z,2.08
2022-12-08T21:50:10.519Z,2.07
2022-12-08T21:52:41.161Z,2.06
2022-12-08T21:55:12.565Z,2.05
2022-12-08T21:57:40.971Z,2.03
2022-12-08T22:00:14.726Z,2.02
2022-12-08T22:02:43.818Z,2.00
2022-12-08T22:05:13.066Z,1.99
2022-12-08T22:07:41.967Z,1.98
2022-12-08T22:10:10.829Z,1.97
2022-12-08T22:12:39.569Z,1.95
2022-12-08T22:15:10.186Z,1.94
2022-12-08T22:17:40.688Z,1.93
2022-12-08T22:20:12.900Z,1.92
2022-12-08T22:22:41.393Z,1.91
2022-12-08T22:25:13.691Z,1.91
2022-12-08T22:27:42.666Z,1.92
2022-12-08T22:30:12.194Z,1.94
2022-12-08T22:32:42.382Z,1.94
2022-12-08T22:35:11.388Z,1.93
2022-12-08T22:37:39.431Z,1.92
2022-12-08T22:40:08.832Z,1.90
2022-12-08T22:42:37.470Z,1.88
2022-12-08T22:45:06.482Z,1.86
2022-12-08T22:47:34.702Z,1.85
2022-12-08T22:50:05.016Z,1.82
2022-12-08T22:52:33.296Z,1.78
2022-12-08T22:55:01.308Z,1.77
2022-12-08T22:57:29.630Z,1.77
2022-12-08T22:59:57.803Z,1.76
2022-12-08T23:02:26.080Z,1.76
2022-12-08T23:04:57.584Z,1.75
2022-12-08T23:07:26.823Z,1.75
2022-12-08T23:09:55.068Z,1.76
2022-12-08T23:12:23.184Z,1.76
2022-12-08T23:14:51.345Z,1.76
2022-12-08T23:17:19.664Z,1.77
2022-12-08T23:19:47.925Z,1.77
2022-12-08T23:22:16.774Z,1.76
2022-12-08T23:24:44.796Z,1.76
2022-12-08T23:27:13.264Z,1.75
2022-12-08T23:29:41.351Z,1.73
2022-12-08T23:32:09.714Z,1.71
2022-12-08T23:34:37.975Z,1.70
2022-12-08T23:37:06.414Z,1.69
2022-12-08T23:39:34.805Z,1.69
2022-12-08T23:42:03.181Z,1.67
2022-12-08T23:44:31.549Z,1.66
2022-12-08T23:47:00.112Z,1.65
2022-12-08T23:49:28.377Z,1.64
2022-12-08T23:51:56.797Z,1.63
2022-12-08T23:54:24.813Z,1.62
2022-12-08T23:56:53.103Z,1.59
2022-12-08T23:59:21.287Z,1.57
